Time;durP1;ratioP1;P1;durP2;ratioP2;P2;SDS_P1;SDS_P2;PMS_P1;PMS_P2;Temp;Humidity;BMP_temperature;BMP_pressure;BME280_temperature;BME280_humidity;BME280_pressure;Samples;Min_cycle;Max_cycle;Signal;HPM_P1;HPM_P2
2021/11/01 00:00:20;;;;;;;;;;;;;;;;;;348573;28;1004;-84
2021/11/01 00:00:32;;;;;;;;;;;;;;;;;;348538;28;992;-85
2021/11/01 00:00:43;;;;;;;;;;;;;;;;;;348618;28;1036;-86
2021/11/01 00:00:57;;;;;;;;;;;;;;;;;;348630;28;881;-84
2021/11/01 00:01:08;;;;;;;;;;;;;;;;;;349224;28;932;-87
2021/11/01 00:01:20;;;;;;;;;;;;;;;;;;350391;28;1036;-88
2021/11/01 00:01:31;;;;;;;;;;;;;;;;;;349142;28;1047;-87
2021/11/01 00:01:42;;;;;;;;;;;;;;;;;;350494;28;853;-87
2021/11/01 00:01:56;;;;;;;;;;;;;;;;;;351400;28;848;-87
2021/11/01 00:02:32;;;;;;;;;;;;;;;;;;350005;28;972;-84
2021/11/01 00:02:43;;;;;;;;;;;;;;;;;;351074;28;1335;-82
2021/11/01 00:03:00;;;;;;;;;;;;;;;;;;349993;28;1395;-85
2021/11/01 00:03:17;;;;;;;;;;;;;;;;;;349967;28;861;-84
2021/11/01 00:03:27;;;;;;;;;;;;;;;;;;350838;28;964;-83
2021/11/01 00:03:38;;;;;;;;;;;;;;;;;;351079;28;983;-83
2021/11/01 00:03:49;;;;;;;;;;;;;;;;;;348880;28;1514;-88
2021/11/01 00:04:03;;;;;;;;;;;;;;;;;;348838;28;1112;-89
2021/11/01 00:04:13;;;;;;;;;;;;;;;;;;348521;28;1350;-84
2021/11/01 00:04:23;;;;;;;;;;;;;;;;;;348498;28;1216;-85
2021/11/01 00:04:34;;;;;;;;;;;;;;;;;;346751;28;1173;-85
2021/11/01 00:05:11;;;;;;;;;;;;;;;;;;347207;28;846;-88
2021/11/01 00:05:23;;;;;;;;;;;;;;;;;;347093;28;901;-85
2021/11/01 00:05:33;;;;;;;;;;;;;;;;;;348493;28;1220;-83
2021/11/01 00:06:06;;;;;;;;;;;;;;;;;;348477;28;1285;-86
2021/11/01 00:06:35;;;;;;;;;;;;;;;;;;349976;28;884;-86
2021/11/01 00:06:46;;;;;;;;;;;;;;;;;;349986;28;945;-84
2021/11/01 00:06:57;;;;;;;;;;;;;;;;;;350078;28;945;-86
2021/11/01 00:07:07;;;;;;;;;;;;;;;;;;348648;28;976;-84
2021/11/01 00:07:21;;;;;;;;;;;;;;;;;;348552;28;925;-85
2021/11/01 00:07:32;;;;;;;;;;;;;;;;;;347294;28;981;-88
2021/11/01 00:07:43;;;;;;;;;;;;;;;;;;348314;28;1039;-85
2021/11/01 00:07:53;;;;;;;;;;;;;;;;;;348627;28;921;-83
2021/11/01 00:08:07;;;;;;;;;;;;;;;;;;350042;28;920;-85
2021/11/01 00:08:17;;;;;;;;;;;;;;;;;;349929;28;933;-87
2021/11/01 00:08:27;;;;;;;;;;;;;;;;;;348600;28;985;-85
2021/11/01 00:08:38;;;;;;;;;;;;;;;;;;347214;28;1365;-84
2021/11/01 00:08:48;;;;;;;;;;;;;;;;;;347113;28;1244;-83
2021/11/01 00:08:59;;;;;;;;;;;;;;;;;;347067;28;1616;-87
2021/11/01 00:09:09;;;;;;;;;;;;;;;;;;347250;28;1181;-87
2021/11/01 00:09:20;;;;;;;;;;;;;;;;;;347245;28;794;-86
2021/11/01 00:09:30;;;;;;;;;;;;;;;;;;348720;28;806;-84
2021/11/01 00:09:41;;;;;;;;;;;;;;;;;;345862;28;1468;-87
2021/11/01 00:09:51;;;;;;;;;;;;;;;;;;345896;28;912;-85
2021/11/01 00:10:29;;;;;;;;;;;;;;;;;;347071;28;874;-86
2021/11/01 00:10:39;;;;;;;;;;;;;;;;;;347182;28;1012;-88
2021/11/01 00:10:50;;;;;;;;;;;;;;;;;;347070;28;1302;-87
2021/11/01 00:11:00;;;;;;;;;;;;;;;;;;347177;28;1172;-86
2021/11/01 00:11:11;;;;;;;;;;;;;;;;;;347233;28;889;-83
2021/11/01 00:11:21;;;;;;;;;;;;;;;;;;348566;28;1321;-84
2021/11/01 00:11:31;;;;;;;;;;;;;;;;;;348122;28;1233;-87
2021/11/01 00:12:14;;;;;;;;;;;;;;;;;;349972;28;953;-86
2021/11/01 00:12:29;;;;;;;;;;;;;;;;;;349456;28;1374;-87
2021/11/01 00:12:39;;;;;;;;;;;;;;;;;;349997;28;995;-86
2021/11/01 00:12:49;;;;;;;;;;;;;;;;;;351155;28;754;-85
2021/11/01 00:13:00;;;;;;;;;;;;;;;;;;350980;28;1303;-86
2021/11/01 00:13:11;;;;;;;;;;;;;;;;;;351358;28;1048;-85
2021/11/01 00:13:37;;;;;;;;;;;;;;;;;;348436;28;1235;-83
2021/11/01 00:13:47;;;;;;;;;;;;;;;;;;347209;28;767;-88
2021/11/01 00:13:58;;;;;;;;;;;;;;;;;;346820;28;1173;-86
2021/11/01 00:14:14;;;;;;;;;;;;;;;;;;347169;28;969;-86
2021/11/01 00:14:25;;;;;;;;;;;;;;;;;;347102;28;1305;-84
2021/11/01 00:14:36;;;;;;;;;;;;;;;;;;347176;28;940;-84
2021/11/01 00:14:46;;;;;;;;;;;;;;;;;;345736;28;1268;-83
2021/11/01 00:14:57;;;;;;;;;;;;;;;;;;345872;28;897;-86
2021/11/01 00:15:08;;;;;;;;;;;;;;;;;;347064;28;1495;-85
2021/11/01 00:15:34;;;;;;;;;;;;;;;;;;347208;28;871;-83
2021/11/01 00:15:45;;;;;;;;;;;;;;;;;;348502;28;881;-87
2021/11/01 00:15:56;;;;;;;;;;;;;;;;;;349686;28;967;-84
2021/11/01 00:16:06;;;;;;;;;;;;;;;;;;348573;28;1658;-87
2021/11/01 00:16:17;;;;;;;;;;;;;;;;;;348707;28;905;-86
2021/11/01 00:16:29;;;;;;;;;;;;;;;;;;349972;28;1047;-88
2021/11/01 00:16:42;;;;;;;;;;;;;;;;;;350711;28;972;-87
2021/11/01 00:16:53;;;;;;;;;;;;;;;;;;351144;28;1021;-84
2021/11/01 00:17:03;;;;;;;;;;;;;;;;;;350719;28;814;-85
2021/11/01 00:17:39;;;;;;;;;;;;;;;;;;347223;28;810;-87
2021/11/01 00:17:50;;;;;;;;;;;;;;;;;;347177;28;1377;-85
2021/11/01 00:18:00;;;;;;;;;;;;;;;;;;349876;28;1409;-86
2021/11/01 00:18:11;;;;;;;;;;;;;;;;;;349952;28;917;-85
2021/11/01 00:18:21;;;;;;;;;;;;;;;;;;349913;28;952;-87
2021/11/01 00:18:49;;;;;;;;;;;;;;;;;;349950;28;925;-87
2021/11/01 00:19:00;;;;;;;;;;;;;;;;;;349987;28;960;-86
2021/11/01 00:19:10;;;;;;;;;;;;;;;;;;349887;28;920;-84
2021/11/01 00:19:21;;;;;;;;;;;;;;;;;;348441;28;1280;-81
2021/11/01 00:19:31;;;;;;;;;;;;;;;;;;349479;28;1005;-81
2021/11/01 00:19:41;;;;;;;;;;;;;;;;;;348463;28;1272;-84
2021/11/01 00:20:10;;;;;;;;;;;;;;;;;;348582;28;929;-83
2021/11/01 00:20:27;;;;;;;;;;;;;;;;;;348549;28;814;-81
2021/11/01 00:20:38;;;;;;;;;;;;;;;;;;348514;28;992;-87
2021/11/01 00:20:48;;;;;;;;;;;;;;;;;;348533;28;1024;-86
2021/11/01 00:20:58;;;;;;;;;;;;;;;;;;347140;28;1591;-86
2021/11/01 00:21:09;;;;;;;;;;;;;;;;;;348219;28;1176;-86
2021/11/01 00:21:31;;;;;;;;;;;;;;;;;;349730;28;973;-86
2021/11/01 00:21:47;;;;;;;;;;;;;;;;;;351334;28;738;-85
2021/11/01 00:21:57;;;;;;;;;;;;;;;;;;349834;28;980;-87
2021/11/01 00:22:08;;;;;;;;;;;;;;;;;;351363;28;1145;-84
2021/11/01 00:22:18;;;;;;;;;;;;;;;;;;351315;28;1913;-84
2021/11/01 00:22:37;;;;;;;;;;;;;;;;;;351534;28;833;-88
2021/11/01 00:22:53;;;;;;;;;;;;;;;;;;351887;28;944;-83
2021/11/01 00:23:30;;;;;;;;;;;;;;;;;;352717;28;912;-85
2021/11/01 00:23:46;;;;;;;;;;;;;;;;;;352740;28;932;-82
2021/11/01 00:23:57;;;;;;;;;;;;;;;;;;351561;28;1035;-85
2021/11/01 00:24:07;;;;;;;;;;;;;;;;;;350170;28;821;-83
2021/11/01 00:24:18;;;;;;;;;;;;;;;;;;351124;28;968;-83
2021/11/01 00:25:21;;;;;;;;;;;;;;;;;;351381;28;992;-86
2021/11/01 00:25:31;;;;;;;;;;;;;;;;;;351461;28;746;-85
2021/11/01 00:25:42;;;;;;;;;;;;;;;;;;351392;28;790;-84
2021/11/01 00:25:52;;;;;;;;;;;;;;;;;;351380;28;928;-81
2021/11/01 00:26:02;;;;;;;;;;;;;;;;;;351437;28;944;-85
2021/11/01 00:26:37;;;;;;;;;;;;;;;;;;352687;28;1190;-86
2021/11/01 00:26:48;;;;;;;;;;;;;;;;;;352923;28;864;-88
2021/11/01 00:26:58;;;;;;;;;;;;;;;;;;351334;28;1411;-81
2021/11/01 00:27:08;;;;;;;;;;;;;;;;;;351332;28;952;-84
2021/11/01 00:27:44;;;;;;;;;;;;;;;;;;351358;28;964;-85
2021/11/01 00:27:55;;;;;;;;;;;;;;;;;;351349;28;826;-85
2021/11/01 00:28:06;;;;;;;;;;;;;;;;;;351514;28;924;-83
2021/11/01 00:28:16;;;;;;;;;;;;;;;;;;349925;28;1142;-84
2021/11/01 00:28:27;;;;;;;;;;;;;;;;;;349885;28;968;-83
2021/11/01 00:28:37;;;;;;;;;;;;;;;;;;351296;28;1662;-85
2021/11/01 00:28:48;;;;;;;;;;;;;;;;;;351097;28;949;-85
2021/11/01 00:29:13;;;;;;;;;;;;;;;;;;351283;28;814;-85
2021/11/01 00:29:24;;;;;;;;;;;;;;;;;;351366;28;1171;-79
2021/11/01 00:29:34;;;;;;;;;;;;;;;;;;348502;28;1303;-88
2021/11/01 00:29:45;;;;;;;;;;;;;;;;;;349697;28;946;-82
2021/11/01 00:29:55;;;;;;;;;;;;;;;;;;349955;28;912;-86
2021/11/01 00:30:33;;;;;;;;;;;;;;;;;;349301;28;818;-84
2021/11/01 00:30:43;;;;;;;;;;;;;;;;;;348362;28;985;-86
2021/11/01 00:30:56;;;;;;;;;;;;;;;;;;348872;28;1444;-83
2021/11/01 00:31:22;;;;;;;;;;;;;;;;;;348509;28;1439;-84
2021/11/01 00:31:33;;;;;;;;;;;;;;;;;;349546;28;909;-88
2021/11/01 00:31:44;;;;;;;;;;;;;;;;;;348816;28;1558;-87
2021/11/01 00:32:01;;;;;;;;;;;;;;;;;;348564;28;1024;-82
2021/11/01 00:32:11;;;;;;;;;;;;;;;;;;349977;28;841;-82
2021/11/01 00:32:22;;;;;;;;;;;;;;;;;;348487;28;1654;-87
2021/11/01 00:32:32;;;;;;;;;;;;;;;;;;348476;28;1286;-83
2021/11/01 00:32:43;;;;;;;;;;;;;;;;;;348606;28;822;-82
2021/11/01 00:32:53;;;;;;;;;;;;;;;;;;348595;28;917;-82
2021/11/01 00:33:03;;;;;;;;;;;;;;;;;;349636;28;1001;-81
2021/11/01 00:33:29;;;;;;;;;;;;;;;;;;348446;28;1291;-83
2021/11/01 00:33:40;;;;;;;;;;;;;;;;;;348585;28;865;-84
2021/11/01 00:33:50;;;;;;;;;;;;;;;;;;349942;28;869;-84
2021/11/01 00:34:01;;;;;;;;;;;;;;;;;;349957;28;924;-86
2021/11/01 00:34:11;;;;;;;;;;;;;;;;;;348588;28;952;-82
2021/11/01 00:34:21;;;;;;;;;;;;;;;;;;348569;28;826;-83
2021/11/01 00:34:32;;;;;;;;;;;;;;;;;;349677;28;972;-80
2021/11/01 00:34:59;;;;;;;;;;;;;;;;;;349832;28;1001;-85
2021/11/01 00:35:09;;;;;;;;;;;;;;;;;;348650;28;985;-87
2021/11/01 00:35:19;;;;;;;;;;;;;;;;;;349971;28;817;-83
2021/11/01 00:35:30;;;;;;;;;;;;;;;;;;351285;28;1297;-83
2021/11/01 00:35:40;;;;;;;;;;;;;;;;;;351280;28;964;-85
2021/11/01 00:35:51;;;;;;;;;;;;;;;;;;352662;28;991;-83
2021/11/01 00:36:03;;;;;;;;;;;;;;;;;;352754;28;888;-84
2021/11/01 00:36:13;;;;;;;;;;;;;;;;;;351268;28;1206;-85
2021/11/01 00:36:24;;;;;;;;;;;;;;;;;;349837;28;1142;-82
2021/11/01 00:36:34;;;;;;;;;;;;;;;;;;348574;28;969;-81
2021/11/01 00:37:11;;;;;;;;;;;;;;;;;;345616;28;1008;-84
2021/11/01 00:37:21;;;;;;;;;;;;;;;;;;345680;28;1016;-85
2021/11/01 00:37:32;;;;;;;;;;;;;;;;;;345667;28;1024;-85
2021/11/01 00:37:43;;;;;;;;;;;;;;;;;;345619;28;921;-82
2021/11/01 00:37:58;;;;;;;;;;;;;;;;;;345774;28;949;-83
2021/11/01 00:38:08;;;;;;;;;;;;;;;;;;346365;28;763;-86
2021/11/01 00:38:19;;;;;;;;;;;;;;;;;;346279;28;1540;-88
2021/11/01 00:38:29;;;;;;;;;;;;;;;;;;349041;28;1281;-85
2021/11/01 00:38:40;;;;;;;;;;;;;;;;;;350571;28;857;-78
2021/11/01 00:38:50;;;;;;;;;;;;;;;;;;351338;28;913;-84
2021/11/01 00:39:01;;;;;;;;;;;;;;;;;;348320;28;1284;-80
2021/11/01 00:39:15;;;;;;;;;;;;;;;;;;348497;28;779;-85
2021/11/01 00:39:40;;;;;;;;;;;;;;;;;;349947;28;996;-85
2021/11/01 00:39:59;;;;;;;;;;;;;;;;;;348459;28;1243;-82
2021/11/01 00:40:10;;;;;;;;;;;;;;;;;;348389;28;1554;-82
2021/11/01 00:40:20;;;;;;;;;;;;;;;;;;345856;28;1594;-85
2021/11/01 00:40:31;;;;;;;;;;;;;;;;;;345788;28;949;-86
2021/11/01 00:40:41;;;;;;;;;;;;;;;;;;345818;28;921;-86
2021/11/01 00:41:17;;;;;;;;;;;;;;;;;;348524;28;798;-85
2021/11/01 00:41:28;;;;;;;;;;;;;;;;;;348594;28;861;-87
2021/11/01 00:41:38;;;;;;;;;;;;;;;;;;349950;28;1027;-86
2021/11/01 00:41:49;;;;;;;;;;;;;;;;;;348276;28;1246;-85
2021/11/01 00:41:59;;;;;;;;;;;;;;;;;;348587;28;905;-84
2021/11/01 00:42:10;;;;;;;;;;;;;;;;;;349902;28;948;-84
2021/11/01 00:42:21;;;;;;;;;;;;;;;;;;351252;28;1878;-85
2021/11/01 00:42:58;;;;;;;;;;;;;;;;;;351287;28;850;-84
2021/11/01 00:43:09;;;;;;;;;;;;;;;;;;351380;28;964;-85
2021/11/01 00:43:19;;;;;;;;;;;;;;;;;;351289;28;1062;-83
2021/11/01 00:43:30;;;;;;;;;;;;;;;;;;351188;28;932;-85
2021/11/01 00:43:40;;;;;;;;;;;;;;;;;;350888;28;990;-83
2021/11/01 00:43:51;;;;;;;;;;;;;;;;;;351376;28;881;-85
2021/11/01 00:44:02;;;;;;;;;;;;;;;;;;351165;28;1030;-88
2021/11/01 00:44:12;;;;;;;;;;;;;;;;;;351211;28;928;-85
2021/11/01 00:44:23;;;;;;;;;;;;;;;;;;349851;28;1266;-82
2021/11/01 00:44:33;;;;;;;;;;;;;;;;;;351342;28;936;-84
2021/11/01 00:44:44;;;;;;;;;;;;;;;;;;349805;28;1315;-85
2021/11/01 00:44:54;;;;;;;;;;;;;;;;;;349874;28;973;-84
2021/11/01 00:45:11;;;;;;;;;;;;;;;;;;349966;28;861;-87
2021/11/01 00:45:21;;;;;;;;;;;;;;;;;;348598;28;981;-84
2021/11/01 00:45:32;;;;;;;;;;;;;;;;;;348357;28;968;-83
2021/11/01 00:45:42;;;;;;;;;;;;;;;;;;347130;28;901;-80
2021/11/01 00:45:53;;;;;;;;;;;;;;;;;;347141;28;850;-88
2021/11/01 00:46:04;;;;;;;;;;;;;;;;;;345823;28;898;-80
2021/11/01 00:46:15;;;;;;;;;;;;;;;;;;347165;28;1412;-82
2021/11/01 00:46:26;;;;;;;;;;;;;;;;;;348637;28;866;-83
2021/11/01 00:46:36;;;;;;;;;;;;;;;;;;348725;28;775;-82
2021/11/01 00:46:47;;;;;;;;;;;;;;;;;;348284;28;1047;-85
2021/11/01 00:46:58;;;;;;;;;;;;;;;;;;348589;28;878;-87
2021/11/01 00:47:11;;;;;;;;;;;;;;;;;;350019;28;857;-85
2021/11/01 00:47:21;;;;;;;;;;;;;;;;;;349914;28;857;-87
2021/11/01 00:47:32;;;;;;;;;;;;;;;;;;349927;28;929;-84
2021/11/01 00:47:42;;;;;;;;;;;;;;;;;;348400;28;1262;-86
2021/11/01 00:47:52;;;;;;;;;;;;;;;;;;349929;28;1247;-85
2021/11/01 00:48:03;;;;;;;;;;;;;;;;;;349867;28;1043;-86
2021/11/01 00:48:14;;;;;;;;;;;;;;;;;;348778;28;826;-85
2021/11/01 00:48:24;;;;;;;;;;;;;;;;;;348610;28;980;-86
2021/11/01 00:48:35;;;;;;;;;;;;;;;;;;349948;28;921;-87
2021/11/01 00:49:32;;;;;;;;;;;;;;;;;;349929;28;1052;-83
2021/11/01 00:49:43;;;;;;;;;;;;;;;;;;351244;28;864;-87
2021/11/01 00:49:55;;;;;;;;;;;;;;;;;;351130;28;1039;-87
2021/11/01 00:50:05;;;;;;;;;;;;;;;;;;349848;28;1172;-87
2021/11/01 00:50:16;;;;;;;;;;;;;;;;;;349752;28;1610;-88
2021/11/01 00:50:39;;;;;;;;;;;;;;;;;;349870;28;969;-86
2021/11/01 00:50:56;;;;;;;;;;;;;;;;;;348466;28;814;-87
2021/11/01 00:51:13;;;;;;;;;;;;;;;;;;348469;28;968;-85
2021/11/01 00:51:24;;;;;;;;;;;;;;;;;;348646;28;1203;-86
2021/11/01 00:51:40;;;;;;;;;;;;;;;;;;348550;28;925;-86
2021/11/01 00:51:51;;;;;;;;;;;;;;;;;;347978;28;943;-85
2021/11/01 00:52:22;;;;;;;;;;;;;;;;;;349278;28;1115;-86
2021/11/01 00:52:34;;;;;;;;;;;;;;;;;;352609;28;1186;-87
2021/11/01 00:53:10;;;;;;;;;;;;;;;;;;352636;28;944;-85
2021/11/01 00:53:23;;;;;;;;;;;;;;;;;;352767;28;920;-87
2021/11/01 00:53:36;;;;;;;;;;;;;;;;;;352669;28;1211;-88
2021/11/01 00:53:49;;;;;;;;;;;;;;;;;;352704;28;1136;-87
2021/11/01 00:54:00;;;;;;;;;;;;;;;;;;351290;28;1465;-86
2021/11/01 00:54:12;;;;;;;;;;;;;;;;;;349824;28;991;-86
2021/11/01 00:54:27;;;;;;;;;;;;;;;;;;349651;28;1000;-85
2021/11/01 00:55:06;;;;;;;;;;;;;;;;;;349844;28;1247;-87
2021/11/01 00:55:49;;;;;;;;;;;;;;;;;;351330;28;858;-86
2021/11/01 00:56:01;;;;;;;;;;;;;;;;;;352528;28;936;-87
2021/11/01 00:56:11;;;;;;;;;;;;;;;;;;354002;27;880;-82
2021/11/01 00:56:21;;;;;;;;;;;;;;;;;;352684;28;932;-84
2021/11/01 00:56:32;;;;;;;;;;;;;;;;;;352684;28;988;-84
2021/11/01 00:56:42;;;;;;;;;;;;;;;;;;352700;28;895;-85
2021/11/01 00:56:53;;;;;;;;;;;;;;;;;;352647;28;968;-83
2021/11/01 00:57:03;;;;;;;;;;;;;;;;;;351481;28;976;-84
2021/11/01 00:57:14;;;;;;;;;;;;;;;;;;352707;28;1051;-85
2021/11/01 00:57:25;;;;;;;;;;;;;;;;;;352701;28;860;-86
2021/11/01 00:57:36;;;;;;;;;;;;;;;;;;352671;28;916;-87
2021/11/01 00:57:46;;;;;;;;;;;;;;;;;;351281;28;1317;-86
2021/11/01 00:57:57;;;;;;;;;;;;;;;;;;349958;28;1047;-86
2021/11/01 00:58:35;;;;;;;;;;;;;;;;;;348470;28;1174;-89
2021/11/01 00:59:17;;;;;;;;;;;;;;;;;;347125;28;1127;-84
2021/11/01 00:59:27;;;;;;;;;;;;;;;;;;347158;28;842;-87
2021/11/01 00:59:38;;;;;;;;;;;;;;;;;;347253;28;1005;-84
2021/11/01 00:59:48;;;;;;;;;;;;;;;;;;349909;28;841;-87
2021/11/01 01:00:07;;;;;;;;;;;;;;;;;;351361;28;925;-87
2021/11/01 01:00:18;;;;;;;;;;;;;;;;;;352656;28;1277;-88
2021/11/01 01:00:29;;;;;;;;;;;;;;;;;;352786;28;881;-88
2021/11/01 01:00:40;;;;;;;;;;;;;;;;;;352698;28;1065;-83
2021/11/01 01:01:16;;;;;;;;;;;;;;;;;;351249;28;810;-84
2021/11/01 01:01:33;;;;;;;;;;;;;;;;;;349861;28;1179;-83
2021/11/01 01:01:44;;;;;;;;;;;;;;;;;;348379;28;1324;-85
2021/11/01 01:01:54;;;;;;;;;;;;;;;;;;347105;28;1051;-87
2021/11/01 01:02:34;;;;;;;;;;;;;;;;;;347094;28;999;-84
2021/11/01 01:02:45;;;;;;;;;;;;;;;;;;348693;28;1409;-87
2021/11/01 01:02:57;;;;;;;;;;;;;;;;;;349638;28;1024;-85
2021/11/01 01:03:09;;;;;;;;;;;;;;;;;;349961;28;1047;-87
2021/11/01 01:03:50;;;;;;;;;;;;;;;;;;350020;28;897;-87
2021/11/01 01:04:53;;;;;;;;;;;;;;;;;;346512;28;954;-85
2021/11/01 01:05:04;;;;;;;;;;;;;;;;;;347624;28;822;-83
2021/11/01 01:05:14;;;;;;;;;;;;;;;;;;346960;28;1198;-89
2021/11/01 01:05:25;;;;;;;;;;;;;;;;;;347289;28;989;-85
2021/11/01 01:05:35;;;;;;;;;;;;;;;;;;347158;28;989;-80
2021/11/01 01:05:46;;;;;;;;;;;;;;;;;;346959;28;1431;-83
2021/11/01 01:06:08;;;;;;;;;;;;;;;;;;348274;28;1436;-84
2021/11/01 01:06:51;;;;;;;;;;;;;;;;;;348417;28;1003;-83
2021/11/01 01:07:02;;;;;;;;;;;;;;;;;;348517;28;1048;-84
2021/11/01 01:07:38;;;;;;;;;;;;;;;;;;348289;28;1333;-87
2021/11/01 01:07:49;;;;;;;;;;;;;;;;;;348393;28;1058;-86
2021/11/01 01:07:59;;;;;;;;;;;;;;;;;;348480;28;1461;-88
2021/11/01 01:08:13;;;;;;;;;;;;;;;;;;348119;28;1044;-86
2021/11/01 01:08:24;;;;;;;;;;;;;;;;;;347041;28;881;-87
2021/11/01 01:08:34;;;;;;;;;;;;;;;;;;347124;28;912;-89
2021/11/01 01:08:44;;;;;;;;;;;;;;;;;;347156;28;1028;-88
2021/11/01 01:08:55;;;;;;;;;;;;;;;;;;348172;28;1024;-87
2021/11/01 01:09:05;;;;;;;;;;;;;;;;;;348217;28;912;-87
2021/11/01 01:09:57;;;;;;;;;;;;;;;;;;347426;28;1271;-86
2021/11/01 01:10:08;;;;;;;;;;;;;;;;;;347116;28;1294;-87
2021/11/01 01:10:45;;;;;;;;;;;;;;;;;;346987;28;1234;-85
2021/11/01 01:11:11;;;;;;;;;;;;;;;;;;348331;28;921;-86
2021/11/01 01:11:22;;;;;;;;;;;;;;;;;;348373;28;956;-86
2021/11/01 01:11:32;;;;;;;;;;;;;;;;;;347098;28;853;-83
2021/11/01 01:11:43;;;;;;;;;;;;;;;;;;345698;28;909;-84
2021/11/01 01:11:54;;;;;;;;;;;;;;;;;;345713;28;988;-84
2021/11/01 01:12:07;;;;;;;;;;;;;;;;;;344943;28;1464;-86
2021/11/01 01:12:17;;;;;;;;;;;;;;;;;;344385;28;997;-88
2021/11/01 01:12:28;;;;;;;;;;;;;;;;;;344195;28;1424;-86
2021/11/01 01:12:42;;;;;;;;;;;;;;;;;;344379;28;869;-86
2021/11/01 01:12:52;;;;;;;;;;;;;;;;;;343028;28;954;-86
2021/11/01 01:13:08;;;;;;;;;;;;;;;;;;345351;28;1361;-84
2021/11/01 01:13:19;;;;;;;;;;;;;;;;;;345808;28;928;-89
2021/11/01 01:13:36;;;;;;;;;;;;;;;;;;345821;28;817;-86
2021/11/01 01:13:46;;;;;;;;;;;;;;;;;;345701;28;990;-85
2021/11/01 01:13:57;;;;;;;;;;;;;;;;;;346012;28;885;-83
2021/11/01 01:14:44;;;;;;;;;;;;;;;;;;345622;28;1337;-89
2021/11/01 01:15:02;;;;;;;;;;;;;;;;;;346854;28;1047;-87
2021/11/01 01:15:21;;;;;;;;;;;;;;;;;;345767;28;802;-84
2021/11/01 01:15:38;;;;;;;;;;;;;;;;;;345708;28;889;-86
2021/11/01 01:16:31;;;;;;;;;;;;;;;;;;346247;28;1279;-85
2021/11/01 01:16:43;;;;;;;;;;;;;;;;;;347113;28;877;-84
2021/11/01 01:16:54;;;;;;;;;;;;;;;;;;346962;28;933;-84
2021/11/01 01:17:05;;;;;;;;;;;;;;;;;;347019;28;842;-86
2021/11/01 01:17:16;;;;;;;;;;;;;;;;;;345631;28;1280;-86
2021/11/01 01:17:26;;;;;;;;;;;;;;;;;;345704;28;1004;-82
2021/11/01 01:17:38;;;;;;;;;;;;;;;;;;345666;28;1156;-88
2021/11/01 01:17:50;;;;;;;;;;;;;;;;;;344333;28;1277;-88
2021/11/01 01:18:06;;;;;;;;;;;;;;;;;;343115;28;1149;-84
2021/11/01 01:18:21;;;;;;;;;;;;;;;;;;345598;28;1341;-85
2021/11/01 01:18:36;;;;;;;;;;;;;;;;;;345591;28;1291;-85
2021/11/01 01:19:18;;;;;;;;;;;;;;;;;;346965;28;933;-87
2021/11/01 01:19:41;;;;;;;;;;;;;;;;;;344382;28;1238;-83
2021/11/01 01:19:58;;;;;;;;;;;;;;;;;;345506;28;1514;-87
2021/11/01 01:20:12;;;;;;;;;;;;;;;;;;344415;28;818;-82
2021/11/01 01:20:23;;;;;;;;;;;;;;;;;;345685;28;1149;-88
2021/11/01 01:20:34;;;;;;;;;;;;;;;;;;347133;28;861;-85
2021/11/01 01:20:44;;;;;;;;;;;;;;;;;;345630;28;1337;-85
2021/11/01 01:20:58;;;;;;;;;;;;;;;;;;347120;28;486;-88
2021/11/01 01:22:13;;;;;;;;;;;;;;;;;;347066;28;972;-87
2021/11/01 01:22:22;;;;;;;;;;;;;;;;;;349891;28;810;-87
2021/11/01 01:22:32;;;;;;;;;;;;;;;;;;349863;28;877;-88
2021/11/01 01:22:43;;;;;;;;;;;;;;;;;;349932;28;849;-83
2021/11/01 01:22:53;;;;;;;;;;;;;;;;;;349909;28;798;-86
2021/11/01 01:23:04;;;;;;;;;;;;;;;;;;349204;28;1039;-86
2021/11/01 01:23:14;;;;;;;;;;;;;;;;;;348425;28;873;-85
2021/11/01 01:23:25;;;;;;;;;;;;;;;;;;348337;28;972;-84
2021/11/01 01:23:35;;;;;;;;;;;;;;;;;;348320;28;924;-86
2021/11/01 01:23:46;;;;;;;;;;;;;;;;;;348437;28;909;-83
2021/11/01 01:24:22;;;;;;;;;;;;;;;;;;347100;28;829;-88
2021/11/01 01:25:20;;;;;;;;;;;;;;;;;;348498;28;894;-85
2021/11/01 01:25:38;;;;;;;;;;;;;;;;;;348455;28;849;-83
2021/11/01 01:26:05;;;;;;;;;;;;;;;;;;348205;28;1273;-86
2021/11/01 01:26:16;;;;;;;;;;;;;;;;;;348164;28;1540;-85
2021/11/01 01:26:41;;;;;;;;;;;;;;;;;;346735;28;1539;-83
2021/11/01 01:27:07;;;;;;;;;;;;;;;;;;345668;28;1235;-89
2021/11/01 01:27:18;;;;;;;;;;;;;;;;;;345648;28;1511;-85
2021/11/01 01:27:40;;;;;;;;;;;;;;;;;;345807;28;870;-86
2021/11/01 01:27:57;;;;;;;;;;;;;;;;;;345644;28;1293;-87
2021/11/01 01:28:07;;;;;;;;;;;;;;;;;;344284;28;1017;-85
2021/11/01 01:28:18;;;;;;;;;;;;;;;;;;345720;28;921;-86
2021/11/01 01:28:29;;;;;;;;;;;;;;;;;;345735;28;996;-87
2021/11/01 01:28:40;;;;;;;;;;;;;;;;;;345725;28;1024;-84
2021/11/01 01:28:50;;;;;;;;;;;;;;;;;;346964;28;1636;-87
2021/11/01 01:29:01;;;;;;;;;;;;;;;;;;347040;28;1186;-87
2021/11/01 01:29:12;;;;;;;;;;;;;;;;;;347109;28;977;-84
2021/11/01 01:29:22;;;;;;;;;;;;;;;;;;347149;28;861;-86
2021/11/01 01:29:33;;;;;;;;;;;;;;;;;;347067;28;937;-87
2021/11/01 01:29:43;;;;;;;;;;;;;;;;;;347146;28;834;-82
2021/11/01 01:29:53;;;;;;;;;;;;;;;;;;347067;28;850;-86
2021/11/01 01:30:04;;;;;;;;;;;;;;;;;;347004;28;897;-85
2021/11/01 01:30:15;;;;;;;;;;;;;;;;;;346882;28;1132;-83
2021/11/01 01:30:27;;;;;;;;;;;;;;;;;;346439;28;1468;-87
2021/11/01 01:30:39;;;;;;;;;;;;;;;;;;347112;28;1004;-88
2021/11/01 01:30:50;;;;;;;;;;;;;;;;;;345644;28;1422;-86
2021/11/01 01:31:01;;;;;;;;;;;;;;;;;;345766;28;798;-84
2021/11/01 01:31:11;;;;;;;;;;;;;;;;;;346942;28;936;-84
2021/11/01 01:31:22;;;;;;;;;;;;;;;;;;346717;28;1015;-87
2021/11/01 01:31:33;;;;;;;;;;;;;;;;;;348277;28;1144;-87
2021/11/01 01:31:43;;;;;;;;;;;;;;;;;;346962;28;1286;-87
2021/11/01 01:31:53;;;;;;;;;;;;;;;;;;345773;28;826;-88
2021/11/01 01:32:06;;;;;;;;;;;;;;;;;;345816;28;1517;-87
2021/11/01 01:32:16;;;;;;;;;;;;;;;;;;344285;28;1409;-86
2021/11/01 01:32:26;;;;;;;;;;;;;;;;;;342873;28;1306;-88
2021/11/01 01:32:38;;;;;;;;;;;;;;;;;;343145;28;803;-84
2021/11/01 01:33:07;;;;;;;;;;;;;;;;;;342957;28;925;-86
2021/11/01 01:33:17;;;;;;;;;;;;;;;;;;342951;28;1004;-89
2021/11/01 01:33:28;;;;;;;;;;;;;;;;;;344249;28;1014;-89
2021/11/01 01:33:38;;;;;;;;;;;;;;;;;;344256;28;942;-84
2021/11/01 01:33:48;;;;;;;;;;;;;;;;;;344361;28;905;-88
2021/11/01 01:33:59;;;;;;;;;;;;;;;;;;343909;28;861;-84
2021/11/01 01:34:10;;;;;;;;;;;;;;;;;;343665;28;933;-85
2021/11/01 01:34:20;;;;;;;;;;;;;;;;;;345941;28;981;-81
2021/11/01 01:34:30;;;;;;;;;;;;;;;;;;347083;28;936;-85
2021/11/01 01:34:41;;;;;;;;;;;;;;;;;;347074;28;972;-87
2021/11/01 01:34:51;;;;;;;;;;;;;;;;;;348493;28;1000;-84
2021/11/01 01:35:02;;;;;;;;;;;;;;;;;;348207;28;970;-85
2021/11/01 01:35:13;;;;;;;;;;;;;;;;;;348440;28;1023;-84
2021/11/01 01:35:23;;;;;;;;;;;;;;;;;;348175;28;1052;-88
2021/11/01 01:35:36;;;;;;;;;;;;;;;;;;345603;28;1402;-87
2021/11/01 01:35:46;;;;;;;;;;;;;;;;;;346933;28;1253;-88
2021/11/01 01:35:57;;;;;;;;;;;;;;;;;;345531;28;982;-86
2021/11/01 01:36:33;;;;;;;;;;;;;;;;;;345629;28;1004;-84
2021/11/01 01:36:45;;;;;;;;;;;;;;;;;;344111;28;1068;-81
2021/11/01 01:37:01;;;;;;;;;;;;;;;;;;344285;28;995;-81
2021/11/01 01:37:12;;;;;;;;;;;;;;;;;;341575;29;1432;-83
2021/11/01 01:37:22;;;;;;;;;;;;;;;;;;343057;28;1417;-88
2021/11/01 01:37:32;;;;;;;;;;;;;;;;;;343081;28;901;-85
2021/11/01 01:37:44;;;;;;;;;;;;;;;;;;343612;28;811;-84
2021/11/01 01:37:54;;;;;;;;;;;;;;;;;;344424;28;842;-88
2021/11/01 01:38:05;;;;;;;;;;;;;;;;;;345731;28;790;-86
2021/11/01 01:38:57;;;;;;;;;;;;;;;;;;345711;28;997;-83
2021/11/01 01:39:07;;;;;;;;;;;;;;;;;;346266;28;842;-85
2021/11/01 01:39:18;;;;;;;;;;;;;;;;;;345669;28;1687;-87
2021/11/01 01:39:28;;;;;;;;;;;;;;;;;;345763;28;973;-86
2021/11/01 01:39:39;;;;;;;;;;;;;;;;;;345741;28;1040;-89
2021/11/01 01:39:49;;;;;;;;;;;;;;;;;;346174;28;945;-83
2021/11/01 01:39:59;;;;;;;;;;;;;;;;;;345117;28;1310;-84
2021/11/01 01:40:12;;;;;;;;;;;;;;;;;;345233;28;1625;-86
2021/11/01 01:40:22;;;;;;;;;;;;;;;;;;344247;28;1394;-82
2021/11/01 01:40:33;;;;;;;;;;;;;;;;;;346916;28;1250;-83
2021/11/01 01:40:43;;;;;;;;;;;;;;;;;;346925;28;977;-83
2021/11/01 01:40:54;;;;;;;;;;;;;;;;;;345598;28;1276;-86
2021/11/01 01:41:14;;;;;;;;;;;;;;;;;;344315;28;1028;-83
2021/11/01 01:41:26;;;;;;;;;;;;;;;;;;344194;28;949;-84
2021/11/01 01:41:36;;;;;;;;;;;;;;;;;;342805;28;1406;-86
2021/11/01 01:41:47;;;;;;;;;;;;;;;;;;345521;28;1399;-85
2021/11/01 01:42:16;;;;;;;;;;;;;;;;;;344006;28;1055;-82
2021/11/01 01:42:26;;;;;;;;;;;;;;;;;;344376;28;1974;-86
2021/11/01 01:42:37;;;;;;;;;;;;;;;;;;344375;28;985;-84
2021/11/01 01:42:47;;;;;;;;;;;;;;;;;;344602;28;1457;-86
2021/11/01 01:42:58;;;;;;;;;;;;;;;;;;344226;28;1255;-87
2021/11/01 01:43:08;;;;;;;;;;;;;;;;;;346521;28;951;-85
2021/11/01 01:43:18;;;;;;;;;;;;;;;;;;349908;28;921;-87
2021/11/01 01:43:29;;;;;;;;;;;;;;;;;;349872;28;872;-83
2021/11/01 01:43:42;;;;;;;;;;;;;;;;;;349592;28;940;-87
2021/11/01 01:43:54;;;;;;;;;;;;;;;;;;349819;28;1411;-84
2021/11/01 01:44:04;;;;;;;;;;;;;;;;;;349460;28;1278;-78
2021/11/01 01:44:41;;;;;;;;;;;;;;;;;;348727;28;1288;-85
2021/11/01 01:44:51;;;;;;;;;;;;;;;;;;350166;28;905;-79
2021/11/01 01:45:07;;;;;;;;;;;;;;;;;;351340;28;881;-85
2021/11/01 01:45:17;;;;;;;;;;;;;;;;;;351303;28;948;-86
2021/11/01 01:45:27;;;;;;;;;;;;;;;;;;349887;28;909;-86
2021/11/01 01:45:38;;;;;;;;;;;;;;;;;;349941;28;900;-82
2021/11/01 01:45:49;;;;;;;;;;;;;;;;;;349196;28;810;-82
2021/11/01 01:45:59;;;;;;;;;;;;;;;;;;349079;28;817;-84